Safety Runner — WDI4835 — position and weather

sailwx.info

Track history (hours):
 
Tides and Currents Weather Stations Pressure Air Temp Water Temp Dewpoint Dewpoint Depression Visibility Wind Speed Wind Dir Waves Ship Positions

Safety Runner

Owner: American Commercial Barge Line LLC, Jeffersonville, IN. More information available from US FCC via Universal Licensing System and Coast Guard Vessel Documentation Center.

Last reported at 2017-Dec-04 10:30 UTC. Time now 2017-Dec-14 00:12 UTC.
Position N 29°48' W 092°14'.
Warning: this ship's position is 9 days out of date.

Length 21 m; draft 3 m.

Type: Towing. MMSI: 367702520.

Date/timePositionNaut miles runAvg speedWind from/ knotsBaromVisibWave heightAir tempDewpointWater temp
2017-Dec-04 10:30N 29°48' W 092°14'0 0.0
2017-Dec-04 10:00N 29°48' W 092°14'0 0.0
2017-Dec-04 09:31N 29°48' W 092°14'2 3.2
2017-Dec-04 09:01N 29°48' W 092°16'2 3.7
2017-Dec-04 08:30N 29°49' W 092°17'30 5.7
2017-Dec-04 03:13N 29°58' W 092°51'1 5.6
2017-Dec-04 02:58N 29°57' W 092°52'11 5.3
2017-Dec-04 00:48N 29°56' W 093°05'2 5.4
2017-Dec-04 00:29N 29°56' W 093°07'3 5.0
2017-Dec-03 23:59N 29°57' W 093°10'3 5.6
2017-Dec-03 23:27N 29°59' W 093°12'3 5.3
2017-Dec-03 22:56N 30°01' W 093°14'2 5.6
2017-Dec-03 22:30N 30°03' W 093°16'3 5.5
2017-Dec-03 22:01N 30°05' W 093°18'1 1.6
2017-Dec-03 21:30N 30°06' W 093°18'0 0.4
2017-Dec-03 21:00N 30°06' W 093°18'0 0.9
2017-Dec-03 20:31N 30°06' W 093°19'2 4.8
2017-Dec-03 20:00N 30°04' W 093°21'2 4.2
2017-Dec-03 19:30N 30°04' W 093°23'1 2.2
2017-Dec-03 19:01N 30°04' W 093°24'3 5.8
2017-Dec-03 18:30N 30°04' W 093°27'3 6.1
2017-Dec-03 18:00N 30°04' W 093°31'12 5.2
2017-Dec-03 15:45N 30°02' W 093°44'0 0.6
2017-Dec-03 15:30N 30°02' W 093°44'7 1.6
2017-Dec-03 10:51N 29°58' W 093°51'9 5.9
2017-Dec-03 09:16N 29°50' W 093°58'1 2.5
2017-Dec-03 09:00N 29°51' W 093°58'0 0.0
2017-Dec-03 08:00N 29°51' W 093°58'0 0.0
2017-Dec-03 06:41N 29°51' W 093°58'0 0.0
2017-Dec-03 05:39N 29°51' W 093°58'20 1.4
2017-Dec-02 15:27N 30°04' W 093°41'3 5.7
2017-Dec-02 14:59N 30°04' W 093°38'2 5.0
2017-Dec-02 14:30N 30°04' W 093°35'2 4.7
2017-Dec-02 14:00N 30°04' W 093°32'2 3.2
2017-Dec-02 13:30N 30°04' W 093°30'0 0.0
2017-Dec-02 13:00N 30°04' W 093°30'0 0.0
2017-Dec-02 12:31N 30°04' W 093°30'0 0.0
2017-Dec-02 12:00N 30°04' W 093°30'0 0.0
2017-Dec-02 11:30N 30°04' W 093°30'0 0.0
2017-Dec-02 11:00N 30°04' W 093°30'0 0.0
2017-Dec-02 10:30N 30°04' W 093°30'0 0.0
2017-Dec-02 10:00N 30°04' W 093°30'0 0.0
2017-Dec-02 09:31N 30°04' W 093°30'0 0.0
2017-Dec-02 09:01N 30°04' W 093°30'0 0.0
2017-Dec-02 08:31N 30°04' W 093°30'0 0.0
2017-Dec-02 08:00N 30°04' W 093°30'0 0.0
2017-Dec-02 07:31N 30°04' W 093°30'0 0.0
2017-Dec-02 07:00N 30°04' W 093°30'0 0.0
2017-Dec-02 06:30N 30°04' W 093°30'1 2.9
2017-Dec-02 06:00N 30°04' W 093°29'2 4.9
2017-Dec-02 05:30N 30°04' W 093°26'2 4.7
2017-Dec-02 05:00N 30°04' W 093°23'2 3.5
2017-Dec-02 04:30N 30°04' W 093°21'2 3.3
2017-Dec-02 04:00N 30°05' W 093°20'2 3.2
2017-Dec-02 03:31N 30°06' W 093°18'1 2.7
2017-Dec-02 03:00N 30°05' W 093°17'0 0.4
2017-Dec-02 02:30N 30°05' W 093°17'0 0.4
2017-Dec-02 02:01N 30°05' W 093°17'2 4.7
2017-Dec-02 01:30N 30°02' W 093°16'2 4.5
2017-Dec-02 01:00N 30°01' W 093°14'2 4.5
2017-Dec-02 00:30N 29°59' W 093°12'2 4.8
2017-Dec-02 00:00N 29°57' W 093°11'2 4.5
2017-Dec-01 23:30N 29°56' W 093°08'41 4.5
2017-Dec-01 14:25N 29°52' W 092°22'2 4.2
2017-Dec-01 13:57N 29°51' W 092°20'2 4.6
2017-Dec-01 13:31N 29°50' W 092°18'3 5.0
2017-Dec-01 13:01N 29°48' W 092°15'3 5.3
2017-Dec-01 12:31N 29°47' W 092°13'0 0.6
2017-Dec-01 12:00N 29°47' W 092°12'1 1.4
2017-Dec-01 11:30N 29°47' W 092°12'0 1.0
2017-Dec-01 11:00N 29°47' W 092°11'0 0.0
2017-Dec-01 10:30N 29°47' W 092°11'1 1.1
2017-Dec-01 10:00N 29°47' W 092°10'2 4.2
2017-Dec-01 09:30N 29°47' W 092°08'2 4.6
2017-Dec-01 09:00N 29°48' W 092°06'2 4.3
2017-Dec-01 08:30N 29°49' W 092°03'2 4.3
2017-Dec-01 08:01N 29°49' W 092°01'2 4.4
2017-Dec-01 07:30N 29°50' W 091°59'54 4.2
2017-Nov-30 18:40N 29°36' W 090°58'4 5.1
2017-Nov-30 17:55N 29°33' W 090°55'2 4.5
2017-Nov-30 17:30N 29°32' W 090°53'3 5.1
2017-Nov-30 17:00N 29°32' W 090°50'2 4.9
2017-Nov-30 16:30N 29°32' W 090°47'2 4.0
2017-Nov-30 16:00N 29°33' W 090°45'2 3.9
2017-Nov-30 15:30N 29°34' W 090°43'2 3.4
2017-Nov-30 15:00N 29°36' W 090°43'1 2.5
2017-Nov-30 14:30N 29°37' W 090°42'0 0.0
2017-Nov-30 14:00N 29°37' W 090°42'0 0.1
2017-Nov-30 13:30N 29°37' W 090°42'0 0.0
2017-Nov-30 13:00N 29°37' W 090°42'0 0.0
2017-Nov-30 12:30N 29°37' W 090°42'0 0.0
2017-Nov-30 12:00N 29°37' W 090°42'0 0.0
2017-Nov-30 11:30N 29°37' W 090°42'0 0.0
2017-Nov-30 11:00N 29°37' W 090°42'0 0.0
2017-Nov-30 10:30N 29°37' W 090°42'0 0.0
2017-Nov-30 10:00N 29°37' W 090°42'0 0.0
2017-Nov-30 09:31N 29°37' W 090°42'0 0.0
2017-Nov-30 09:00N 29°37' W 090°42'0 0.0
2017-Nov-30 08:30N 29°37' W 090°42'0 0.0
2017-Nov-30 08:00N 29°37' W 090°42'0 0.0
2017-Nov-30 07:31N 29°37' W 090°42'0 0.0
2017-Nov-30 07:00N 29°37' W 090°42'0 0.0
2017-Nov-30 06:31N 29°37' W 090°42'0 0.0
2017-Nov-30 06:00N 29°37' W 090°42'0 0.0
2017-Nov-30 05:30N 29°37' W 090°42'0 0.0
2017-Nov-30 05:00N 29°37' W 090°42'0 0.0
2017-Nov-30 04:30N 29°37' W 090°42'0 0.1
2017-Nov-30 04:00N 29°37' W 090°42'1 1.9
2017-Nov-30 03:30N 29°36' W 090°41'2 4.3
2017-Nov-30 02:58N 29°35' W 090°38'2 4.4
2017-Nov-30 02:29N 29°35' W 090°36'2 4.5
2017-Nov-30 02:00N 29°34' W 090°34'  
Track history (hours):
 
Tides and Currents Weather Stations Pressure Air Temp Water Temp Dewpoint Dewpoint Depression Visibility Wind Speed Wind Dir Waves Ship Positions

Safety Runner

Owner: American Commercial Barge Line LLC, Jeffersonville, IN. More information available from US FCC via Universal Licensing System and Coast Guard Vessel Documentation Center.

Last reported at 2017-Dec-04 10:30 UTC. Time now 2017-Dec-14 00:12 UTC.
Position N 29°48' W 092°14'.
Warning: this ship's position is 9 days out of date.

Length 21 m; draft 3 m.

Type: Towing. MMSI: 367702520.

Date/timePositionNaut miles runAvg speedWind from/ knotsBaromVisibWave heightAir tempDewpointWater temp
2017-Dec-04 10:30N 29°48' W 092°14'0 0.0
2017-Dec-04 10:00N 29°48' W 092°14'0 0.0
2017-Dec-04 09:31N 29°48' W 092°14'2 3.2
2017-Dec-04 09:01N 29°48' W 092°16'2 3.7
2017-Dec-04 08:30N 29°49' W 092°17'30 5.7
2017-Dec-04 03:13N 29°58' W 092°51'1 5.6
2017-Dec-04 02:58N 29°57' W 092°52'11 5.3
2017-Dec-04 00:48N 29°56' W 093°05'2 5.4
2017-Dec-04 00:29N 29°56' W 093°07'3 5.0
2017-Dec-03 23:59N 29°57' W 093°10'3 5.6
2017-Dec-03 23:27N 29°59' W 093°12'3 5.3
2017-Dec-03 22:56N 30°01' W 093°14'2 5.6
2017-Dec-03 22:30N 30°03' W 093°16'3 5.5
2017-Dec-03 22:01N 30°05' W 093°18'1 1.6
2017-Dec-03 21:30N 30°06' W 093°18'0 0.4
2017-Dec-03 21:00N 30°06' W 093°18'0 0.9
2017-Dec-03 20:31N 30°06' W 093°19'2 4.8
2017-Dec-03 20:00N 30°04' W 093°21'2 4.2
2017-Dec-03 19:30N 30°04' W 093°23'1 2.2
2017-Dec-03 19:01N 30°04' W 093°24'3 5.8
2017-Dec-03 18:30N 30°04' W 093°27'3 6.1
2017-Dec-03 18:00N 30°04' W 093°31'12 5.2
2017-Dec-03 15:45N 30°02' W 093°44'0 0.6
2017-Dec-03 15:30N 30°02' W 093°44'7 1.6
2017-Dec-03 10:51N 29°58' W 093°51'9 5.9
2017-Dec-03 09:16N 29°50' W 093°58'1 2.5
2017-Dec-03 09:00N 29°51' W 093°58'0 0.0
2017-Dec-03 08:00N 29°51' W 093°58'0 0.0
2017-Dec-03 06:41N 29°51' W 093°58'0 0.0
2017-Dec-03 05:39N 29°51' W 093°58'20 1.4
2017-Dec-02 15:27N 30°04' W 093°41'3 5.7
2017-Dec-02 14:59N 30°04' W 093°38'2 5.0
2017-Dec-02 14:30N 30°04' W 093°35'2 4.7
2017-Dec-02 14:00N 30°04' W 093°32'2 3.2
2017-Dec-02 13:30N 30°04' W 093°30'0 0.0
2017-Dec-02 13:00N 30°04' W 093°30'0 0.0
2017-Dec-02 12:31N 30°04' W 093°30'0 0.0
2017-Dec-02 12:00N 30°04' W 093°30'0 0.0
2017-Dec-02 11:30N 30°04' W 093°30'0 0.0
2017-Dec-02 11:00N 30°04' W 093°30'0 0.0
2017-Dec-02 10:30N 30°04' W 093°30'0 0.0
2017-Dec-02 10:00N 30°04' W 093°30'0 0.0
2017-Dec-02 09:31N 30°04' W 093°30'0 0.0
2017-Dec-02 09:01N 30°04' W 093°30'0 0.0
2017-Dec-02 08:31N 30°04' W 093°30'0 0.0
2017-Dec-02 08:00N 30°04' W 093°30'0 0.0
2017-Dec-02 07:31N 30°04' W 093°30'0 0.0
2017-Dec-02 07:00N 30°04' W 093°30'0 0.0
2017-Dec-02 06:30N 30°04' W 093°30'1 2.9
2017-Dec-02 06:00N 30°04' W 093°29'2 4.9
2017-Dec-02 05:30N 30°04' W 093°26'2 4.7
2017-Dec-02 05:00N 30°04' W 093°23'2 3.5
2017-Dec-02 04:30N 30°04' W 093°21'2 3.3
2017-Dec-02 04:00N 30°05' W 093°20'2 3.2
2017-Dec-02 03:31N 30°06' W 093°18'1 2.7
2017-Dec-02 03:00N 30°05' W 093°17'0 0.4
2017-Dec-02 02:30N 30°05' W 093°17'0 0.4
2017-Dec-02 02:01N 30°05' W 093°17'2 4.7
2017-Dec-02 01:30N 30°02' W 093°16'2 4.5
2017-Dec-02 01:00N 30°01' W 093°14'2 4.5
2017-Dec-02 00:30N 29°59' W 093°12'2 4.8
2017-Dec-02 00:00N 29°57' W 093°11'2 4.5
2017-Dec-01 23:30N 29°56' W 093°08'41 4.5
2017-Dec-01 14:25N 29°52' W 092°22'2 4.2
2017-Dec-01 13:57N 29°51' W 092°20'2 4.6
2017-Dec-01 13:31N 29°50' W 092°18'3 5.0
2017-Dec-01 13:01N 29°48' W 092°15'3 5.3
2017-Dec-01 12:31N 29°47' W 092°13'0 0.6
2017-Dec-01 12:00N 29°47' W 092°12'1 1.4
2017-Dec-01 11:30N 29°47' W 092°12'0 1.0
2017-Dec-01 11:00N 29°47' W 092°11'0 0.0
2017-Dec-01 10:30N 29°47' W 092°11'1 1.1
2017-Dec-01 10:00N 29°47' W 092°10'2 4.2
2017-Dec-01 09:30N 29°47' W 092°08'2 4.6
2017-Dec-01 09:00N 29°48' W 092°06'2 4.3
2017-Dec-01 08:30N 29°49' W 092°03'2 4.3
2017-Dec-01 08:01N 29°49' W 092°01'2 4.4
2017-Dec-01 07:30N 29°50' W 091°59'54 4.2
2017-Nov-30 18:40N 29°36' W 090°58'4 5.1
2017-Nov-30 17:55N 29°33' W 090°55'2 4.5
2017-Nov-30 17:30N 29°32' W 090°53'3 5.1
2017-Nov-30 17:00N 29°32' W 090°50'2 4.9
2017-Nov-30 16:30N 29°32' W 090°47'2 4.0
2017-Nov-30 16:00N 29°33' W 090°45'2 3.9
2017-Nov-30 15:30N 29°34' W 090°43'2 3.4
2017-Nov-30 15:00N 29°36' W 090°43'1 2.5
2017-Nov-30 14:30N 29°37' W 090°42'0 0.0
2017-Nov-30 14:00N 29°37' W 090°42'0 0.1
2017-Nov-30 13:30N 29°37' W 090°42'0 0.0
2017-Nov-30 13:00N 29°37' W 090°42'0 0.0
2017-Nov-30 12:30N 29°37' W 090°42'0 0.0
2017-Nov-30 12:00N 29°37' W 090°42'0 0.0
2017-Nov-30 11:30N 29°37' W 090°42'0 0.0
2017-Nov-30 11:00N 29°37' W 090°42'0 0.0
2017-Nov-30 10:30N 29°37' W 090°42'0 0.0
2017-Nov-30 10:00N 29°37' W 090°42'0 0.0
2017-Nov-30 09:31N 29°37' W 090°42'0 0.0
2017-Nov-30 09:00N 29°37' W 090°42'0 0.0
2017-Nov-30 08:30N 29°37' W 090°42'0 0.0
2017-Nov-30 08:00N 29°37' W 090°42'0 0.0
2017-Nov-30 07:31N 29°37' W 090°42'0 0.0
2017-Nov-30 07:00N 29°37' W 090°42'0 0.0
2017-Nov-30 06:31N 29°37' W 090°42'0 0.0
2017-Nov-30 06:00N 29°37' W 090°42'0 0.0
2017-Nov-30 05:30N 29°37' W 090°42'0 0.0
2017-Nov-30 05:00N 29°37' W 090°42'0 0.0
2017-Nov-30 04:30N 29°37' W 090°42'0 0.1
2017-Nov-30 04:00N 29°37' W 090°42'1 1.9
2017-Nov-30 03:30N 29°36' W 090°41'2 4.3
2017-Nov-30 02:58N 29°35' W 090°38'2 4.4
2017-Nov-30 02:29N 29°35' W 090°36'2 4.5
2017-Nov-30 02:00N 29°34' W 090°34'  

Dump ship's entire track history